sensor_id;sensor_type;location;lat;lon;timestamp;P1;durP1;ratioP1;P2;durP2;ratioP2
27586;SDS011;15019;49.002;8.420;2022-09-13T00:02:02;9.55;;;5.72;;
27586;SDS011;15019;49.002;8.420;2022-09-13T00:04:28;15.82;;;6.05;;
27586;SDS011;15019;49.002;8.420;2022-09-13T00:06:53;9.93;;;5.57;;
27586;SDS011;15019;49.002;8.420;2022-09-13T00:09:18;8.05;;;5.85;;
27586;SDS011;15019;49.002;8.420;2022-09-13T00:11:44;7.32;;;5.50;;
27586;SDS011;15019;49.002;8.420;2022-09-13T00:14:10;8.73;;;5.60;;
27586;SDS011;15019;49.002;8.420;2022-09-13T00:16:35;9.18;;;5.82;;
27586;SDS011;15019;49.002;8.420;2022-09-13T00:19:00;8.63;;;5.70;;
27586;SDS011;15019;49.002;8.420;2022-09-13T00:21:25;6.90;;;6.00;;
27586;SDS011;15019;49.002;8.420;2022-09-13T00:23:52;9.93;;;6.47;;
27586;SDS011;15019;49.002;8.420;2022-09-13T00:26:19;8.43;;;6.07;;
27586;SDS011;15019;49.002;8.420;2022-09-13T00:28:50;13.25;;;6.40;;
27586;SDS011;15019;49.002;8.420;2022-09-13T00:31:17;8.85;;;5.93;;
27586;SDS011;15019;49.002;8.420;2022-09-13T00:33:44;7.82;;;5.75;;
27586;SDS011;15019;49.002;8.420;2022-09-13T00:36:10;9.95;;;6.30;;
27586;SDS011;15019;49.002;8.420;2022-09-13T00:38:36;8.57;;;6.18;;
27586;SDS011;15019;49.002;8.420;2022-09-13T00:41:03;9.48;;;6.32;;
27586;SDS011;15019;49.002;8.420;2022-09-13T00:44:04;8.20;;;6.40;;
27586;SDS011;15019;49.002;8.420;2022-09-13T00:48:54;9.27;;;6.00;;
27586;SDS011;15019;49.002;8.420;2022-09-13T00:51:23;9.77;;;6.47;;
27586;SDS011;15019;49.002;8.420;2022-09-13T00:53:50;7.50;;;6.00;;
27586;SDS011;15019;49.002;8.420;2022-09-13T00:56:51;12.40;;;6.13;;
27586;SDS011;15019;49.002;8.420;2022-09-13T00:59:18;8.50;;;6.30;;
27586;SDS011;15019;49.002;8.420;2022-09-13T01:01:47;10.45;;;6.90;;
27586;SDS011;15019;49.002;8.420;2022-09-13T01:04:16;9.68;;;6.78;;
27586;SDS011;15019;49.002;8.420;2022-09-13T01:06:44;10.77;;;6.15;;
27586;SDS011;15019;49.002;8.420;2022-09-13T01:09:11;9.02;;;5.90;;
27586;SDS011;15019;49.002;8.420;2022-09-13T01:11:41;10.48;;;5.80;;
27586;SDS011;15019;49.002;8.420;2022-09-13T01:14:10;6.75;;;5.80;;
27586;SDS011;15019;49.002;8.420;2022-09-13T01:16:37;7.38;;;5.28;;
27586;SDS011;15019;49.002;8.420;2022-09-13T01:19:02;7.20;;;5.55;;
27586;SDS011;15019;49.002;8.420;2022-09-13T01:24:23;8.63;;;5.90;;
27586;SDS011;15019;49.002;8.420;2022-09-13T01:37:50;9.52;;;5.65;;
27586;SDS011;15019;49.002;8.420;2022-09-13T01:43:24;10.18;;;6.28;;
27586;SDS011;15019;49.002;8.420;2022-09-13T01:46:04;9.73;;;6.03;;
27586;SDS011;15019;49.002;8.420;2022-09-13T01:51:32;9.00;;;5.55;;
27586;SDS011;15019;49.002;8.420;2022-09-13T01:54:28;8.13;;;5.83;;
27586;SDS011;15019;49.002;8.420;2022-09-13T01:56:56;10.82;;;6.00;;
27586;SDS011;15019;49.002;8.420;2022-09-13T01:59:35;8.70;;;5.75;;
27586;SDS011;15019;49.002;8.420;2022-09-13T02:02:20;7.43;;;5.90;;
27586;SDS011;15019;49.002;8.420;2022-09-13T02:04:51;13.75;;;5.88;;
27586;SDS011;15019;49.002;8.420;2022-09-13T02:07:20;9.55;;;6.10;;
27586;SDS011;15019;49.002;8.420;2022-09-13T02:09:55;8.30;;;6.25;;
27586;SDS011;15019;49.002;8.420;2022-09-13T02:12:25;8.10;;;6.25;;
27586;SDS011;15019;49.002;8.420;2022-09-13T02:15:07;8.18;;;6.10;;
27586;SDS011;15019;49.002;8.420;2022-09-13T02:17:40;10.05;;;6.47;;
27586;SDS011;15019;49.002;8.420;2022-09-13T02:20:18;11.02;;;6.38;;
27586;SDS011;15019;49.002;8.420;2022-09-13T02:22:51;8.73;;;6.00;;
27586;SDS011;15019;49.002;8.420;2022-09-13T02:25:21;8.48;;;6.30;;
27586;SDS011;15019;49.002;8.420;2022-09-13T02:27:50;10.07;;;6.13;;
27586;SDS011;15019;49.002;8.420;2022-09-13T02:30:18;10.77;;;6.35;;
27586;SDS011;15019;49.002;8.420;2022-09-13T02:35:15;8.45;;;6.32;;
27586;SDS011;15019;49.002;8.420;2022-09-13T02:37:46;11.98;;;6.20;;
27586;SDS011;15019;49.002;8.420;2022-09-13T02:40:20;10.07;;;6.45;;
27586;SDS011;15019;49.002;8.420;2022-09-13T02:43:03;14.90;;;6.65;;
27586;SDS011;15019;49.002;8.420;2022-09-13T02:45:46;9.88;;;6.03;;
27586;SDS011;15019;49.002;8.420;2022-09-13T02:48:40;8.25;;;5.90;;
27586;SDS011;15019;49.002;8.420;2022-09-13T02:53:50;11.02;;;5.82;;
27586;SDS011;15019;49.002;8.420;2022-09-13T03:01:44;8.15;;;6.25;;
27586;SDS011;15019;49.002;8.420;2022-09-13T03:04:13;11.52;;;6.07;;
27586;SDS011;15019;49.002;8.420;2022-09-13T03:06:39;9.77;;;5.65;;
27586;SDS011;15019;49.002;8.420;2022-09-13T03:09:04;9.43;;;6.70;;
27586;SDS011;15019;49.002;8.420;2022-09-13T03:14:28;10.23;;;6.15;;
27586;SDS011;15019;49.002;8.420;2022-09-13T03:22:38;9.80;;;5.93;;
27586;SDS011;15019;49.002;8.420;2022-09-13T03:27:56;10.15;;;6.75;;
27586;SDS011;15019;49.002;8.420;2022-09-13T03:30:29;11.30;;;5.97;;
27586;SDS011;15019;49.002;8.420;2022-09-13T03:33:10;10.50;;;6.03;;
27586;SDS011;15019;49.002;8.420;2022-09-13T03:38:36;7.82;;;5.78;;
27586;SDS011;15019;49.002;8.420;2022-09-13T03:41:42;9.48;;;5.50;;
27586;SDS011;15019;49.002;8.420;2022-09-13T03:44:12;11.40;;;6.25;;
27586;SDS011;15019;49.002;8.420;2022-09-13T03:46:42;9.32;;;5.85;;
27586;SDS011;15019;49.002;8.420;2022-09-13T03:49:13;10.25;;;6.03;;
27586;SDS011;15019;49.002;8.420;2022-09-13T03:51:40;9.02;;;6.03;;
27586;SDS011;15019;49.002;8.420;2022-09-13T03:54:09;8.15;;;6.00;;
27586;SDS011;15019;49.002;8.420;2022-09-13T03:56:40;7.82;;;5.43;;
27586;SDS011;15019;49.002;8.420;2022-09-13T03:59:05;7.97;;;6.18;;
27586;SDS011;15019;49.002;8.420;2022-09-13T04:01:32;9.52;;;5.47;;
27586;SDS011;15019;49.002;8.420;2022-09-13T04:03:57;8.25;;;5.55;;
27586;SDS011;15019;49.002;8.420;2022-09-13T04:06:22;8.63;;;5.63;;
27586;SDS011;15019;49.002;8.420;2022-09-13T04:08:48;8.43;;;5.68;;
27586;SDS011;15019;49.002;8.420;2022-09-13T04:11:13;10.82;;;6.40;;
27586;SDS011;15019;49.002;8.420;2022-09-13T04:13:39;9.13;;;5.60;;
27586;SDS011;15019;49.002;8.420;2022-09-13T04:16:04;8.35;;;5.55;;
27586;SDS011;15019;49.002;8.420;2022-09-13T04:18:31;13.27;;;6.80;;
27586;SDS011;15019;49.002;8.420;2022-09-13T04:20:57;10.60;;;6.15;;
27586;SDS011;15019;49.002;8.420;2022-09-13T04:23:26;9.20;;;6.00;;
27586;SDS011;15019;49.002;8.420;2022-09-13T04:25:52;7.88;;;6.13;;
27586;SDS011;15019;49.002;8.420;2022-09-13T04:28:19;12.00;;;6.38;;
27586;SDS011;15019;49.002;8.420;2022-09-13T04:30:46;9.50;;;6.20;;
27586;SDS011;15019;49.002;8.420;2022-09-13T04:33:13;9.88;;;6.50;;
27586;SDS011;15019;49.002;8.420;2022-09-13T04:35:39;11.65;;;6.60;;
27586;SDS011;15019;49.002;8.420;2022-09-13T04:38:04;8.48;;;5.65;;
27586;SDS011;15019;49.002;8.420;2022-09-13T04:40:30;9.63;;;5.68;;
27586;SDS011;15019;49.002;8.420;2022-09-13T04:42:56;8.90;;;5.97;;
27586;SDS011;15019;49.002;8.420;2022-09-13T04:45:21;10.38;;;6.10;;
27586;SDS011;15019;49.002;8.420;2022-09-13T04:47:50;9.65;;;5.45;;
27586;SDS011;15019;49.002;8.420;2022-09-13T04:50:20;12.82;;;6.15;;
27586;SDS011;15019;49.002;8.420;2022-09-13T04:52:46;8.80;;;5.53;;
27586;SDS011;15019;49.002;8.420;2022-09-13T04:55:11;7.07;;;5.57;;
27586;SDS011;15019;49.002;8.420;2022-09-13T04:57:40;10.65;;;6.00;;
27586;SDS011;15019;49.002;8.420;2022-09-13T05:00:06;11.67;;;6.23;;
27586;SDS011;15019;49.002;8.420;2022-09-13T05:02:32;11.20;;;5.93;;
27586;SDS011;15019;49.002;8.420;2022-09-13T05:04:57;9.20;;;5.78;;
27586;SDS011;15019;49.002;8.420;2022-09-13T05:07:22;9.45;;;5.80;;
27586;SDS011;15019;49.002;8.420;2022-09-13T05:09:47;9.57;;;6.47;;
27586;SDS011;15019;49.002;8.420;2022-09-13T05:12:13;10.35;;;5.72;;
27586;SDS011;15019;49.002;8.420;2022-09-13T05:14:38;10.98;;;5.97;;
27586;SDS011;15019;49.002;8.420;2022-09-13T05:17:03;9.02;;;5.75;;
27586;SDS011;15019;49.002;8.420;2022-09-13T05:19:29;9.23;;;6.00;;
27586;SDS011;15019;49.002;8.420;2022-09-13T05:21:54;9.15;;;5.57;;
27586;SDS011;15019;49.002;8.420;2022-09-13T05:24:19;9.77;;;6.10;;
27586;SDS011;15019;49.002;8.420;2022-09-13T05:26:44;10.70;;;5.90;;
27586;SDS011;15019;49.002;8.420;2022-09-13T05:29:11;10.98;;;6.05;;
27586;SDS011;15019;49.002;8.420;2022-09-13T05:31:37;13.95;;;6.18;;
27586;SDS011;15019;49.002;8.420;2022-09-13T05:36:31;9.50;;;5.57;;
27586;SDS011;15019;49.002;8.420;2022-09-13T05:38:57;9.13;;;5.47;;
27586;SDS011;15019;49.002;8.420;2022-09-13T05:41:23;14.70;;;5.85;;
27586;SDS011;15019;49.002;8.420;2022-09-13T05:43:48;13.77;;;5.72;;
27586;SDS011;15019;49.002;8.420;2022-09-13T05:46:14;10.05;;;5.28;;
27586;SDS011;15019;49.002;8.420;2022-09-13T05:48:41;13.30;;;5.32;;
27586;SDS011;15019;49.002;8.420;2022-09-13T05:51:08;10.52;;;5.30;;
27586;SDS011;15019;49.002;8.420;2022-09-13T05:53:35;9.93;;;5.80;;
27586;SDS011;15019;49.002;8.420;2022-09-13T05:56:02;9.40;;;5.32;;
27586;SDS011;15019;49.002;8.420;2022-09-13T05:58:27;8.73;;;5.10;;
27586;SDS011;15019;49.002;8.420;2022-09-13T06:00:53;13.70;;;5.95;;
27586;SDS011;15019;49.002;8.420;2022-09-13T06:03:20;18.25;;;6.03;;
27586;SDS011;15019;49.002;8.420;2022-09-13T06:05:46;11.90;;;5.90;;
27586;SDS011;15019;49.002;8.420;2022-09-13T06:08:11;10.50;;;6.15;;
27586;SDS011;15019;49.002;8.420;2022-09-13T06:10:36;9.82;;;5.75;;
27586;SDS011;15019;49.002;8.420;2022-09-13T06:13:01;14.13;;;6.22;;
27586;SDS011;15019;49.002;8.420;2022-09-13T06:15:27;11.23;;;5.80;;
27586;SDS011;15019;49.002;8.420;2022-09-13T06:17:52;12.77;;;6.05;;
27586;SDS011;15019;49.002;8.420;2022-09-13T06:20:17;11.70;;;5.95;;
27586;SDS011;15019;49.002;8.420;2022-09-13T06:22:43;12.23;;;5.78;;
27586;SDS011;15019;49.002;8.420;2022-09-13T06:25:08;10.45;;;5.35;;
27586;SDS011;15019;49.002;8.420;2022-09-13T06:27:33;8.77;;;5.35;;
27586;SDS011;15019;49.002;8.420;2022-09-13T06:29:59;8.23;;;4.82;;
27586;SDS011;15019;49.002;8.420;2022-09-13T06:32:24;10.52;;;5.13;;
27586;SDS011;15019;49.002;8.420;2022-09-13T06:34:49;8.45;;;4.88;;
27586;SDS011;15019;49.002;8.420;2022-09-13T06:37:15;12.43;;;5.07;;
27586;SDS011;15019;49.002;8.420;2022-09-13T06:39:40;11.68;;;4.68;;
27586;SDS011;15019;49.002;8.420;2022-09-13T06:42:05;10.05;;;4.55;;
27586;SDS011;15019;49.002;8.420;2022-09-13T06:44:30;10.85;;;5.03;;
27586;SDS011;15019;49.002;8.420;2022-09-13T06:46:56;8.02;;;4.45;;
27586;SDS011;15019;49.002;8.420;2022-09-13T06:49:21;8.60;;;4.53;;
27586;SDS011;15019;49.002;8.420;2022-09-13T06:51:46;7.72;;;4.20;;
27586;SDS011;15019;49.002;8.420;2022-09-13T06:54:12;5.35;;;4.10;;
27586;SDS011;15019;49.002;8.420;2022-09-13T06:56:37;5.70;;;4.28;;
27586;SDS011;15019;49.002;8.420;2022-09-13T06:59:04;10.38;;;4.00;;
27586;SDS011;15019;49.002;8.420;2022-09-13T07:01:32;8.15;;;4.10;;
27586;SDS011;15019;49.002;8.420;2022-09-13T07:03:59;6.40;;;4.00;;
27586;SDS011;15019;49.002;8.420;2022-09-13T07:06:27;6.65;;;3.97;;
27586;SDS011;15019;49.002;8.420;2022-09-13T07:08:57;7.65;;;4.18;;
27586;SDS011;15019;49.002;8.420;2022-09-13T07:11:25;7.32;;;3.67;;
27586;SDS011;15019;49.002;8.420;2022-09-13T07:13:57;6.75;;;3.83;;
27586;SDS011;15019;49.002;8.420;2022-09-13T07:16:24;9.15;;;4.00;;
27586;SDS011;15019;49.002;8.420;2022-09-13T07:18:51;6.97;;;3.42;;
27586;SDS011;15019;49.002;8.420;2022-09-13T07:21:21;8.93;;;3.67;;
27586;SDS011;15019;49.002;8.420;2022-09-13T07:23:46;7.00;;;3.38;;
27586;SDS011;15019;49.002;8.420;2022-09-13T07:26:12;6.03;;;3.40;;
27586;SDS011;15019;49.002;8.420;2022-09-13T07:28:38;6.38;;;3.58;;
27586;SDS011;15019;49.002;8.420;2022-09-13T07:31:12;5.30;;;3.38;;
27586;SDS011;15019;49.002;8.420;2022-09-13T07:33:46;4.63;;;3.25;;
27586;SDS011;15019;49.002;8.420;2022-09-13T07:36:12;7.20;;;3.42;;
27586;SDS011;15019;49.002;8.420;2022-09-13T07:38:41;5.00;;;3.13;;
27586;SDS011;15019;49.002;8.420;2022-09-13T07:41:11;5.90;;;3.30;;
27586;SDS011;15019;49.002;8.420;2022-09-13T07:43:37;5.18;;;2.90;;
27586;SDS011;15019;49.002;8.420;2022-09-13T07:46:04;4.13;;;2.95;;
27586;SDS011;15019;49.002;8.420;2022-09-13T07:48:32;5.40;;;3.10;;
27586;SDS011;15019;49.002;8.420;2022-09-13T07:50:59;7.72;;;3.38;;
27586;SDS011;15019;49.002;8.420;2022-09-13T07:53:27;5.05;;;3.25;;
27586;SDS011;15019;49.002;8.420;2022-09-13T07:55:53;4.45;;;3.30;;
27586;SDS011;15019;49.002;8.420;2022-09-13T07:58:23;6.70;;;2.85;;
27586;SDS011;15019;49.002;8.420;2022-09-13T08:00:48;7.97;;;3.90;;
27586;SDS011;15019;49.002;8.420;2022-09-13T08:03:15;6.15;;;3.10;;
27586;SDS011;15019;49.002;8.420;2022-09-13T08:05:42;9.88;;;3.20;;
27586;SDS011;15019;49.002;8.420;2022-09-13T08:08:07;6.20;;;3.70;;
27586;SDS011;15019;49.002;8.420;2022-09-13T08:10:33;6.85;;;2.90;;
27586;SDS011;15019;49.002;8.420;2022-09-13T08:12:58;7.47;;;3.80;;
27586;SDS011;15019;49.002;8.420;2022-09-13T08:15:24;6.93;;;3.15;;
27586;SDS011;15019;49.002;8.420;2022-09-13T08:17:50;9.63;;;3.03;;
27586;SDS011;15019;49.002;8.420;2022-09-13T08:20:15;5.45;;;3.00;;
27586;SDS011;15019;49.002;8.420;2022-09-13T08:22:40;5.80;;;2.72;;
27586;SDS011;15019;49.002;8.420;2022-09-13T08:25:06;8.18;;;2.55;;
27586;SDS011;15019;49.002;8.420;2022-09-13T08:27:31;5.47;;;2.67;;
27586;SDS011;15019;49.002;8.420;2022-09-13T08:29:57;7.22;;;2.42;;
27586;SDS011;15019;49.002;8.420;2022-09-13T08:32:22;4.32;;;2.20;;
27586;SDS011;15019;49.002;8.420;2022-09-13T08:34:47;6.72;;;2.38;;
27586;SDS011;15019;49.002;8.420;2022-09-13T08:37:12;6.85;;;2.20;;
27586;SDS011;15019;49.002;8.420;2022-09-13T08:39:38;4.43;;;2.10;;
27586;SDS011;15019;49.002;8.420;2022-09-13T08:42:10;3.42;;;1.73;;
27586;SDS011;15019;49.002;8.420;2022-09-13T08:44:51;3.15;;;2.10;;
27586;SDS011;15019;49.002;8.420;2022-09-13T08:47:29;4.55;;;2.20;;
27586;SDS011;15019;49.002;8.420;2022-09-13T08:52:56;3.15;;;2.00;;
27586;SDS011;15019;49.002;8.420;2022-09-13T08:58:19;5.35;;;2.10;;
27586;SDS011;15019;49.002;8.420;2022-09-13T09:01:05;4.25;;;2.15;;
27586;SDS011;15019;49.002;8.420;2022-09-13T09:06:17;7.50;;;2.33;;
27586;SDS011;15019;49.002;8.420;2022-09-13T09:08:45;7.60;;;2.47;;
27586;SDS011;15019;49.002;8.420;2022-09-13T09:11:25;4.20;;;2.20;;
27586;SDS011;15019;49.002;8.420;2022-09-13T09:14:29;4.53;;;2.15;;
27586;SDS011;15019;49.002;8.420;2022-09-13T09:16:57;4.75;;;2.20;;
27586;SDS011;15019;49.002;8.420;2022-09-13T09:19:27;4.25;;;2.38;;
27586;SDS011;15019;49.002;8.420;2022-09-13T09:21:57;5.95;;;2.25;;
27586;SDS011;15019;49.002;8.420;2022-09-13T09:24:23;4.05;;;2.33;;
27586;SDS011;15019;49.002;8.420;2022-09-13T09:26:49;4.97;;;2.20;;
27586;SDS011;15019;49.002;8.420;2022-09-13T09:29:19;4.15;;;2.40;;
27586;SDS011;15019;49.002;8.420;2022-09-13T09:31:55;5.10;;;2.28;;
27586;SDS011;15019;49.002;8.420;2022-09-13T09:37:07;4.53;;;2.50;;
27586;SDS011;15019;49.002;8.420;2022-09-13T09:39:36;5.85;;;2.40;;
27586;SDS011;15019;49.002;8.420;2022-09-13T09:42:02;4.47;;;2.20;;
27586;SDS011;15019;49.002;8.420;2022-09-13T09:44:28;4.13;;;2.15;;
27586;SDS011;15019;49.002;8.420;2022-09-13T09:49:44;6.45;;;2.25;;
27586;SDS011;15019;49.002;8.420;2022-09-13T09:52:13;4.13;;;2.05;;
27586;SDS011;15019;49.002;8.420;2022-09-13T09:54:42;4.90;;;2.50;;
27586;SDS011;15019;49.002;8.420;2022-09-13T09:57:07;6.57;;;2.58;;
27586;SDS011;15019;49.002;8.420;2022-09-13T09:59:33;8.43;;;2.35;;
27586;SDS011;15019;49.002;8.420;2022-09-13T10:01:59;6.63;;;2.30;;
27586;SDS011;15019;49.002;8.420;2022-09-13T10:04:37;4.00;;;2.20;;
27586;SDS011;15019;49.002;8.420;2022-09-13T10:09:34;3.70;;;2.10;;
27586;SDS011;15019;49.002;8.420;2022-09-13T10:12:00;8.18;;;2.05;;
27586;SDS011;15019;49.002;8.420;2022-09-13T10:20:01;5.15;;;2.15;;
27586;SDS011;15019;49.002;8.420;2022-09-13T10:22:44;6.80;;;2.40;;
27586;SDS011;15019;49.002;8.420;2022-09-13T10:25:30;3.90;;;1.90;;
27586;SDS011;15019;49.002;8.420;2022-09-13T10:27:56;4.07;;;2.25;;
27586;SDS011;15019;49.002;8.420;2022-09-13T10:32:53;5.77;;;2.10;;
27586;SDS011;15019;49.002;8.420;2022-09-13T10:35:20;5.47;;;2.05;;
27586;SDS011;15019;49.002;8.420;2022-09-13T10:37:45;3.95;;;2.20;;
27586;SDS011;15019;49.002;8.420;2022-09-13T10:40:30;7.07;;;2.40;;
27586;SDS011;15019;49.002;8.420;2022-09-13T10:42:57;5.68;;;2.00;;
27586;SDS011;15019;49.002;8.420;2022-09-13T10:45:26;5.20;;;2.10;;
27586;SDS011;15019;49.002;8.420;2022-09-13T10:47:54;6.82;;;2.10;;
27586;SDS011;15019;49.002;8.420;2022-09-13T10:50:30;5.82;;;2.20;;
27586;SDS011;15019;49.002;8.420;2022-09-13T10:52:56;3.97;;;2.22;;
27586;SDS011;15019;49.002;8.420;2022-09-13T10:55:37;4.50;;;2.28;;
27586;SDS011;15019;49.002;8.420;2022-09-13T11:01:16;12.50;;;4.55;;
27586;SDS011;15019;49.002;8.420;2022-09-13T11:14:15;4.70;;;2.13;;
27586;SDS011;15019;49.002;8.420;2022-09-13T11:30:24;4.18;;;1.92;;
27586;SDS011;15019;49.002;8.420;2022-09-13T11:35:35;7.43;;;2.00;;
27586;SDS011;15019;49.002;8.420;2022-09-13T11:46:24;3.05;;;1.70;;
27586;SDS011;15019;49.002;8.420;2022-09-13T11:56:23;4.97;;;1.93;;
27586;SDS011;15019;49.002;8.420;2022-09-13T11:58:55;3.50;;;1.70;;
27586;SDS011;15019;49.002;8.420;2022-09-13T12:01:28;7.20;;;2.20;;
27586;SDS011;15019;49.002;8.420;2022-09-13T12:04:48;3.90;;;1.85;;
27586;SDS011;15019;49.002;8.420;2022-09-13T12:07:11;5.63;;;2.25;;
27586;SDS011;15019;49.002;8.420;2022-09-13T12:09:54;7.38;;;2.00;;
27586;SDS011;15019;49.002;8.420;2022-09-13T12:12:25;5.78;;;1.92;;
27586;SDS011;15019;49.002;8.420;2022-09-13T12:15:00;5.00;;;2.10;;
27586;SDS011;15019;49.002;8.420;2022-09-13T12:20:42;3.78;;;1.95;;
27586;SDS011;15019;49.002;8.420;2022-09-13T12:26:18;3.13;;;1.70;;
27586;SDS011;15019;49.002;8.420;2022-09-13T12:28:48;4.53;;;1.80;;
27586;SDS011;15019;49.002;8.420;2022-09-13T12:31:22;3.25;;;1.63;;
27586;SDS011;15019;49.002;8.420;2022-09-13T12:33:50;2.67;;;1.50;;
27586;SDS011;15019;49.002;8.420;2022-09-13T12:42:18;5.22;;;1.50;;
27586;SDS011;15019;49.002;8.420;2022-09-13T13:01:49;7.45;;;1.65;;
27586;SDS011;15019;49.002;8.420;2022-09-13T13:04:25;3.13;;;1.50;;
27586;SDS011;15019;49.002;8.420;2022-09-13T13:07:15;2.20;;;1.27;;
27586;SDS011;15019;49.002;8.420;2022-09-13T13:09:48;5.70;;;1.80;;
27586;SDS011;15019;49.002;8.420;2022-09-13T13:15:06;4.20;;;1.30;;
27586;SDS011;15019;49.002;8.420;2022-09-13T13:17:45;2.58;;;1.40;;
27586;SDS011;15019;49.002;8.420;2022-09-13T13:33:53;3.35;;;1.50;;
27586;SDS011;15019;49.002;8.420;2022-09-13T13:36:42;6.43;;;1.60;;
27586;SDS011;15019;49.002;8.420;2022-09-13T13:39:52;5.13;;;2.13;;
27586;SDS011;15019;49.002;8.420;2022-09-13T13:42:09;3.33;;;1.80;;
27586;SDS011;15019;49.002;8.420;2022-09-13T13:49:44;4.73;;;1.50;;
27586;SDS011;15019;49.002;8.420;2022-09-13T13:55:04;2.20;;;1.40;;
27586;SDS011;15019;49.002;8.420;2022-09-13T13:57:58;2.97;;;1.58;;
27586;SDS011;15019;49.002;8.420;2022-09-13T14:00:27;2.55;;;1.40;;
27586;SDS011;15019;49.002;8.420;2022-09-13T14:11:33;4.63;;;1.60;;
27586;SDS011;15019;49.002;8.420;2022-09-13T14:19:52;2.33;;;1.40;;
27586;SDS011;15019;49.002;8.420;2022-09-13T14:22:29;4.72;;;1.50;;
27586;SDS011;15019;49.002;8.420;2022-09-13T14:25:12;3.88;;;1.63;;
27586;SDS011;15019;49.002;8.420;2022-09-13T14:27:44;3.53;;;1.70;;
27586;SDS011;15019;49.002;8.420;2022-09-13T14:30:18;4.25;;;1.95;;
27586;SDS011;15019;49.002;8.420;2022-09-13T14:32:48;3.30;;;1.70;;
27586;SDS011;15019;49.002;8.420;2022-09-13T14:35:29;1.88;;;1.33;;
27586;SDS011;15019;49.002;8.420;2022-09-13T14:38:15;3.63;;;1.88;;
27586;SDS011;15019;49.002;8.420;2022-09-13T14:40:47;4.30;;;1.50;;
27586;SDS011;15019;49.002;8.420;2022-09-13T14:43:14;5.45;;;1.80;;
27586;SDS011;15019;49.002;8.420;2022-09-13T14:45:43;3.55;;;1.80;;
27586;SDS011;15019;49.002;8.420;2022-09-13T14:48:19;4.38;;;1.88;;
27586;SDS011;15019;49.002;8.420;2022-09-13T14:50:51;5.28;;;1.77;;
27586;SDS011;15019;49.002;8.420;2022-09-13T14:53:49;5.78;;;1.67;;
27586;SDS011;15019;49.002;8.420;2022-09-13T14:56:22;3.75;;;1.45;;
27586;SDS011;15019;49.002;8.420;2022-09-13T14:58:50;4.55;;;1.77;;
27586;SDS011;15019;49.002;8.420;2022-09-13T15:01:20;4.45;;;1.80;;
27586;SDS011;15019;49.002;8.420;2022-09-13T15:03:57;7.22;;;1.80;;
27586;SDS011;15019;49.002;8.420;2022-09-13T15:06:29;8.65;;;1.73;;
27586;SDS011;15019;49.002;8.420;2022-09-13T15:09:12;4.57;;;1.70;;
27586;SDS011;15019;49.002;8.420;2022-09-13T15:14:24;2.40;;;1.73;;
27586;SDS011;15019;49.002;8.420;2022-09-13T15:17:11;2.40;;;1.60;;
27586;SDS011;15019;49.002;8.420;2022-09-13T15:19:47;2.97;;;1.48;;
27586;SDS011;15019;49.002;8.420;2022-09-13T15:22:18;2.87;;;1.60;;
27586;SDS011;15019;49.002;8.420;2022-09-13T15:24:47;4.50;;;1.80;;
27586;SDS011;15019;49.002;8.420;2022-09-13T15:28:00;13.07;;;1.90;;
27586;SDS011;15019;49.002;8.420;2022-09-13T15:35:37;4.25;;;1.60;;
27586;SDS011;15019;49.002;8.420;2022-09-13T15:40:45;3.80;;;1.83;;
27586;SDS011;15019;49.002;8.420;2022-09-13T15:43:12;5.60;;;1.70;;
27586;SDS011;15019;49.002;8.420;2022-09-13T15:45:37;7.65;;;1.92;;
27586;SDS011;15019;49.002;8.420;2022-09-13T15:48:03;6.82;;;1.80;;
27586;SDS011;15019;49.002;8.420;2022-09-13T15:50:31;9.32;;;1.80;;
27586;SDS011;15019;49.002;8.420;2022-09-13T15:52:57;3.70;;;1.52;;
27586;SDS011;15019;49.002;8.420;2022-09-13T15:55:25;5.43;;;1.70;;
27586;SDS011;15019;49.002;8.420;2022-09-13T15:57:51;10.35;;;1.73;;
27586;SDS011;15019;49.002;8.420;2022-09-13T16:00:24;4.25;;;1.50;;
27586;SDS011;15019;49.002;8.420;2022-09-13T16:02:50;5.90;;;1.83;;
27586;SDS011;15019;49.002;8.420;2022-09-13T16:05:16;2.60;;;1.50;;
27586;SDS011;15019;49.002;8.420;2022-09-13T16:07:42;2.60;;;1.50;;
27586;SDS011;15019;49.002;8.420;2022-09-13T16:10:12;4.68;;;1.60;;
27586;SDS011;15019;49.002;8.420;2022-09-13T16:12:44;3.45;;;1.63;;
27586;SDS011;15019;49.002;8.420;2022-09-13T16:15:09;5.18;;;1.63;;
27586;SDS011;15019;49.002;8.420;2022-09-13T16:17:35;2.35;;;1.60;;
27586;SDS011;15019;49.002;8.420;2022-09-13T16:20:01;2.75;;;1.60;;
27586;SDS011;15019;49.002;8.420;2022-09-13T16:22:26;3.58;;;1.80;;
27586;SDS011;15019;49.002;8.420;2022-09-13T16:24:51;2.83;;;1.50;;
27586;SDS011;15019;49.002;8.420;2022-09-13T16:27:18;3.72;;;1.90;;
27586;SDS011;15019;49.002;8.420;2022-09-13T16:29:44;5.60;;;1.60;;
27586;SDS011;15019;49.002;8.420;2022-09-13T16:32:10;4.07;;;1.60;;
27586;SDS011;15019;49.002;8.420;2022-09-13T16:34:35;4.00;;;1.60;;
27586;SDS011;15019;49.002;8.420;2022-09-13T16:37:01;4.75;;;1.60;;
27586;SDS011;15019;49.002;8.420;2022-09-13T16:39:27;5.05;;;1.50;;
27586;SDS011;15019;49.002;8.420;2022-09-13T16:41:52;6.85;;;1.70;;
27586;SDS011;15019;49.002;8.420;2022-09-13T16:44:17;4.68;;;1.42;;
27586;SDS011;15019;49.002;8.420;2022-09-13T16:46:43;3.45;;;1.70;;
27586;SDS011;15019;49.002;8.420;2022-09-13T16:49:08;4.00;;;1.33;;
27586;SDS011;15019;49.002;8.420;2022-09-13T16:51:34;3.70;;;1.70;;
27586;SDS011;15019;49.002;8.420;2022-09-13T16:53:59;5.10;;;1.83;;
27586;SDS011;15019;49.002;8.420;2022-09-13T16:56:25;3.50;;;2.10;;
27586;SDS011;15019;49.002;8.420;2022-09-13T16:58:52;5.30;;;2.22;;
27586;SDS011;15019;49.002;8.420;2022-09-13T17:01:27;5.35;;;1.95;;
27586;SDS011;15019;49.002;8.420;2022-09-13T17:03:53;4.03;;;1.80;;
27586;SDS011;15019;49.002;8.420;2022-09-13T17:06:20;2.95;;;1.70;;
27586;SDS011;15019;49.002;8.420;2022-09-13T17:08:48;3.75;;;1.80;;
27586;SDS011;15019;49.002;8.420;2022-09-13T17:11:16;6.03;;;1.95;;
27586;SDS011;15019;49.002;8.420;2022-09-13T17:13:43;5.85;;;3.65;;
27586;SDS011;15019;49.002;8.420;2022-09-13T17:16:25;3.40;;;1.80;;
27586;SDS011;15019;49.002;8.420;2022-09-13T17:19:00;2.92;;;2.10;;
27586;SDS011;15019;49.002;8.420;2022-09-13T17:21:28;4.32;;;1.80;;
27586;SDS011;15019;49.002;8.420;2022-09-13T17:23:54;8.13;;;1.95;;
27586;SDS011;15019;49.002;8.420;2022-09-13T17:26:20;4.30;;;1.92;;
27586;SDS011;15019;49.002;8.420;2022-09-13T17:28:45;4.32;;;1.90;;
27586;SDS011;15019;49.002;8.420;2022-09-13T17:31:11;32.30;;;9.45;;
27586;SDS011;15019;49.002;8.420;2022-09-13T17:33:36;33.88;;;14.13;;
27586;SDS011;15019;49.002;8.420;2022-09-13T17:36:06;7.68;;;3.35;;
27586;SDS011;15019;49.002;8.420;2022-09-13T17:38:35;9.68;;;4.00;;
27586;SDS011;15019;49.002;8.420;2022-09-13T17:41:02;4.82;;;2.20;;
27586;SDS011;15019;49.002;8.420;2022-09-13T17:43:32;5.00;;;1.73;;
27586;SDS011;15019;49.002;8.420;2022-09-13T17:46:05;2.78;;;1.90;;
27586;SDS011;15019;49.002;8.420;2022-09-13T17:48:31;4.07;;;1.80;;
27586;SDS011;15019;49.002;8.420;2022-09-13T17:51:04;6.15;;;2.25;;
27586;SDS011;15019;49.002;8.420;2022-09-13T17:53:48;4.07;;;1.85;;
27586;SDS011;15019;49.002;8.420;2022-09-13T17:56:25;4.25;;;2.10;;
27586;SDS011;15019;49.002;8.420;2022-09-13T17:58:52;5.35;;;2.25;;
27586;SDS011;15019;49.002;8.420;2022-09-13T18:01:18;5.72;;;2.30;;
27586;SDS011;15019;49.002;8.420;2022-09-13T18:03:43;6.07;;;2.60;;
27586;SDS011;15019;49.002;8.420;2022-09-13T18:06:09;3.78;;;2.10;;
27586;SDS011;15019;49.002;8.420;2022-09-13T18:08:35;5.50;;;2.20;;
27586;SDS011;15019;49.002;8.420;2022-09-13T18:11:03;4.07;;;2.00;;
27586;SDS011;15019;49.002;8.420;2022-09-13T18:13:34;4.43;;;2.35;;
27586;SDS011;15019;49.002;8.420;2022-09-13T18:16:01;5.95;;;2.40;;
27586;SDS011;15019;49.002;8.420;2022-09-13T18:18:32;4.00;;;2.45;;
27586;SDS011;15019;49.002;8.420;2022-09-13T18:20:59;4.75;;;2.65;;